createdAt,value
2022-10-11T00:02:03.290Z,8.15
2022-10-11T00:04:51.035Z,16.48
2022-10-11T00:07:38.872Z,7.07
2022-10-11T00:10:26.372Z,9.25
2022-10-11T00:13:14.028Z,8.20
2022-10-11T00:16:01.790Z,11.32
2022-10-11T00:18:49.405Z,10.50
2022-10-11T00:21:37.077Z,11.38
2022-10-11T00:24:24.585Z,7.43
2022-10-11T00:27:12.017Z,12.10
2022-10-11T00:29:59.467Z,10.43
2022-10-11T00:32:46.535Z,12.90
2022-10-11T00:35:34.030Z,9.50
2022-10-11T00:38:21.562Z,7.13
2022-10-11T00:41:09.007Z,8.02
2022-10-11T00:44:17.809Z,10.60
2022-10-11T00:47:12.315Z,9.43
2022-10-11T00:50:01.546Z,9.88
2022-10-11T00:52:55.812Z,8.93
2022-10-11T00:55:51.413Z,11.35
2022-10-11T00:58:38.885Z,7.38
2022-10-11T01:01:26.654Z,12.38
2022-10-11T01:04:14.186Z,7.35
2022-10-11T01:07:02.098Z,14.90
2022-10-11T01:09:50.082Z,7.97
2022-10-11T01:12:45.142Z,7.05
2022-10-11T01:15:40.228Z,4.43
2022-10-11T01:18:35.659Z,8.38
2022-10-11T01:21:41.862Z,12.63
2022-10-11T01:24:37.836Z,10.82
2022-10-11T01:27:38.538Z,10.63
2022-10-11T01:30:29.251Z,10.38
2022-10-11T01:33:35.951Z,14.45
2022-10-11T01:36:42.753Z,11.50
2022-10-11T01:39:46.126Z,11.90
2022-10-11T01:42:36.303Z,10.65
2022-10-11T01:45:24.076Z,11.73
2022-10-11T01:48:13.474Z,17.27
2022-10-11T01:51:03.162Z,10.43
2022-10-11T01:54:09.108Z,8.55
2022-10-11T01:57:17.684Z,10.07
2022-10-11T02:00:23.683Z,12.15
2022-10-11T02:03:33.746Z,6.63
2022-10-11T02:06:33.496Z,10.25
2022-10-11T02:09:38.401Z,7.90
2022-10-11T02:12:36.457Z,10.57
2022-10-11T02:15:27.214Z,11.27
2022-10-11T02:18:19.206Z,10.63
2022-10-11T02:21:10.328Z,8.52
2022-10-11T02:24:06.971Z,7.10
2022-10-11T02:26:56.888Z,8.40
2022-10-11T02:29:46.196Z,8.20
2022-10-11T02:32:35.383Z,7.40
2022-10-11T02:35:24.684Z,8.02
2022-10-11T02:38:21.918Z,9.55
2022-10-11T02:41:39.357Z,11.00
2022-10-11T02:44:37.995Z,14.20
2022-10-11T02:47:25.744Z,10.10
2022-10-11T02:50:14.254Z,8.88
2022-10-11T02:53:01.918Z,16.10
2022-10-11T02:55:51.473Z,7.50
2022-10-11T02:58:39.164Z,6.53
2022-10-11T03:01:26.917Z,9.70
2022-10-11T03:04:14.571Z,8.27
2022-10-11T03:07:02.189Z,7.90
2022-10-11T03:09:49.891Z,7.40
2022-10-11T03:12:37.459Z,9.70
2022-10-11T03:15:24.691Z,8.75
2022-10-11T03:18:12.612Z,9.25
2022-10-11T03:21:00.222Z,8.98
2022-10-11T03:23:47.815Z,5.10
2022-10-11T03:26:35.652Z,4.70
2022-10-11T03:29:23.381Z,6.60
2022-10-11T03:32:11.071Z,9.18
2022-10-11T03:34:58.778Z,9.93
2022-10-11T03:37:46.412Z,13.93
2022-10-11T03:40:33.997Z,9.77
2022-10-11T03:43:21.645Z,12.70
2022-10-11T03:46:09.381Z,17.60
2022-10-11T03:48:56.702Z,30.58
2022-10-11T03:51:44.348Z,55.08
2022-10-11T03:54:31.962Z,52.55
2022-10-11T03:57:19.722Z,28.35
2022-10-11T04:00:07.892Z,55.78
2022-10-11T04:02:55.618Z,73.20
2022-10-11T04:05:43.300Z,39.10
2022-10-11T04:08:30.623Z,100.53
2022-10-11T04:11:18.275Z,66.85
2022-10-11T04:14:05.963Z,99.65
2022-10-11T04:16:56.371Z,96.60
2022-10-11T04:19:46.158Z,60.63
2022-10-11T04:22:33.790Z,85.50
2022-10-11T04:25:21.457Z,49.65
2022-10-11T04:28:09.678Z,118.43
2022-10-11T04:30:57.412Z,42.58
2022-10-11T04:33:45.092Z,52.70
2022-10-11T04:36:34.103Z,46.53
2022-10-11T04:39:21.797Z,51.40
2022-10-11T04:42:09.388Z,26.67
2022-10-11T04:44:56.820Z,57.85
2022-10-11T04:47:44.501Z,32.17
2022-10-11T04:50:32.125Z,47.92
2022-10-11T04:53:19.771Z,27.52
2022-10-11T04:56:11.110Z,18.58
2022-10-11T04:58:58.791Z,50.72
2022-10-11T05:01:46.639Z,41.95
2022-10-11T05:04:34.464Z,59.78
2022-10-11T05:07:22.108Z,25.80
2022-10-11T05:10:10.043Z,26.40
2022-10-11T05:12:57.701Z,29.42
2022-10-11T05:15:45.391Z,25.58
2022-10-11T05:18:32.912Z,24.35
2022-10-11T05:21:22.817Z,24.27
2022-10-11T05:24:10.308Z,19.00
2022-10-11T05:27:02.419Z,25.55
2022-10-11T05:29:51.021Z,32.63
2022-10-11T05:32:38.542Z,26.40
2022-10-11T05:35:26.238Z,27.63
2022-10-11T05:38:13.801Z,34.05
2022-10-11T05:41:03.293Z,29.35
2022-10-11T05:43:51.051Z,63.97
2022-10-11T05:46:38.762Z,104.70
2022-10-11T05:49:26.479Z,33.60
2022-10-11T05:52:19.665Z,109.57
2022-10-11T05:55:07.460Z,92.47
2022-10-11T05:57:56.113Z,76.65
2022-10-11T06:00:43.641Z,44.63
2022-10-11T06:03:31.201Z,23.15
2022-10-11T06:06:19.123Z,57.35
2022-10-11T06:09:06.715Z,28.20
2022-10-11T06:11:54.314Z,52.50
2022-10-11T06:14:41.890Z,43.95
2022-10-11T06:17:30.165Z,37.22
2022-10-11T06:20:18.641Z,54.33
2022-10-11T06:23:06.342Z,26.13
2022-10-11T06:26:01.955Z,26.58
2022-10-11T06:28:49.930Z,53.38
2022-10-11T06:31:37.980Z,71.72
2022-10-11T06:34:25.633Z,22.33
2022-10-11T06:37:13.390Z,28.95
2022-10-11T06:40:01.110Z,31.10
2022-10-11T06:42:49.719Z,25.25
2022-10-11T06:45:37.299Z,45.83
2022-10-11T06:48:25.010Z,30.63
2022-10-11T06:51:14.353Z,36.33
2022-10-11T06:54:02.339Z,54.13
2022-10-11T06:56:50.229Z,36.22
2022-10-11T06:59:39.392Z,46.60
2022-10-11T07:02:26.635Z,31.40
2022-10-11T07:05:13.897Z,47.95
2022-10-11T07:08:02.034Z,31.05
2022-10-11T07:10:49.850Z,23.83
2022-10-11T07:13:38.433Z,24.35
2022-10-11T07:16:26.650Z,33.75
2022-10-11T07:19:14.272Z,20.05
2022-10-11T07:22:01.894Z,15.57
2022-10-11T07:24:49.635Z,16.65
2022-10-11T07:27:36.912Z,12.13
2022-10-11T07:30:24.645Z,11.30
2022-10-11T07:33:12.320Z,18.40
2022-10-11T07:36:00.295Z,14.13
2022-10-11T07:38:48.265Z,20.83
2022-10-11T07:41:38.111Z,12.35
2022-10-11T07:44:27.402Z,28.60
2022-10-11T07:47:15.139Z,31.17
2022-10-11T07:50:03.126Z,22.52
2022-10-11T07:52:51.081Z,15.70
2022-10-11T07:55:40.305Z,21.55
2022-10-11T07:58:28.069Z,17.52
2022-10-11T08:01:15.795Z,11.45
2022-10-11T08:04:03.596Z,9.32
2022-10-11T08:06:53.366Z,10.43
2022-10-11T08:09:40.799Z,13.50
2022-10-11T08:12:28.037Z,14.18
2022-10-11T08:15:15.767Z,13.13
2022-10-11T08:18:03.550Z,11.18
2022-10-11T08:20:51.459Z,12.85
2022-10-11T08:23:39.932Z,11.65
2022-10-11T08:26:27.608Z,12.95
2022-10-11T08:29:15.332Z,11.88
2022-10-11T08:32:03.035Z,13.85
2022-10-11T08:34:50.736Z,12.88
2022-10-11T08:37:38.537Z,14.35
2022-10-11T08:40:26.210Z,13.63
2022-10-11T08:43:45.463Z,15.77
2022-10-11T08:46:35.233Z,13.48
2022-10-11T08:49:29.134Z,14.45
2022-10-11T08:52:27.166Z,11.43
2022-10-11T08:55:37.295Z,12.82
2022-10-11T08:58:35.676Z,11.95
2022-10-11T09:01:26.253Z,13.30
2022-10-11T09:04:16.133Z,15.23
2022-10-11T09:07:13.626Z,13.15
2022-10-11T09:10:36.158Z,15.18
2022-10-11T09:13:34.107Z,13.98
2022-10-11T09:16:39.509Z,10.93
2022-10-11T09:20:02.415Z,12.98
2022-10-11T09:23:18.160Z,12.13
2022-10-11T09:26:14.713Z,13.80
2022-10-11T09:29:02.622Z,13.00
2022-10-11T09:31:54.290Z,14.48
2022-10-11T09:34:42.189Z,13.32
2022-10-11T09:37:42.410Z,14.13
2022-10-11T09:40:48.152Z,15.05
2022-10-11T09:43:35.899Z,15.55
2022-10-11T09:46:41.647Z,14.15
2022-10-11T09:49:40.193Z,14.88
2022-10-11T09:52:28.058Z,11.18
2022-10-11T09:55:32.969Z,10.68
2022-10-11T09:58:35.142Z,10.60
2022-10-11T10:01:25.062Z,15.90
2022-10-11T10:04:14.933Z,11.18
2022-10-11T10:07:13.200Z,12.05
2022-10-11T10:10:29.115Z,11.15
2022-10-11T10:13:22.421Z,10.68
2022-10-11T10:16:20.021Z,8.43
2022-10-11T10:19:18.822Z,9.27
2022-10-11T10:22:06.901Z,8.98
2022-10-11T10:24:56.093Z,5.95
2022-10-11T10:27:57.856Z,9.73
2022-10-11T10:30:57.712Z,10.70
2022-10-11T10:33:47.201Z,9.88
2022-10-11T10:36:38.616Z,8.63
2022-10-11T10:39:26.455Z,6.30
2022-10-11T10:42:19.007Z,9.48
2022-10-11T10:45:18.643Z,12.15
2022-10-11T10:48:08.847Z,8.77
2022-10-11T10:51:01.307Z,7.72
2022-10-11T10:53:59.269Z,7.47
2022-10-11T10:56:53.225Z,8.75
2022-10-11T10:59:52.423Z,8.13
2022-10-11T11:02:48.676Z,6.78
2022-10-11T11:06:02.218Z,5.78
2022-10-11T11:09:17.837Z,9.05
2022-10-11T11:12:17.042Z,6.90
2022-10-11T11:15:11.652Z,6.53
2022-10-11T11:18:28.610Z,6.82
2022-10-11T11:21:44.354Z,5.05
2022-10-11T11:24:49.286Z,10.65
2022-10-11T11:28:01.583Z,4.78
2022-10-11T11:31:24.951Z,6.95
2022-10-11T11:34:38.280Z,7.05
2022-10-11T11:37:33.787Z,6.15
2022-10-11T11:40:39.386Z,7.53
2022-10-11T11:43:35.136Z,7.70
2022-10-11T11:46:31.988Z,10.75
2022-10-11T11:49:32.025Z,9.02
2022-10-11T11:52:33.884Z,8.95
2022-10-11T11:55:31.906Z,6.78
2022-10-11T11:58:19.391Z,4.88
2022-10-11T12:01:18.315Z,5.30
2022-10-11T12:04:15.820Z,6.78
2022-10-11T12:07:17.942Z,9.88
2022-10-11T12:10:27.369Z,8.88
2022-10-11T12:13:31.317Z,6.95
2022-10-11T12:16:20.863Z,8.48
2022-10-11T12:19:14.317Z,8.07
2022-10-11T12:22:44.743Z,8.05
2022-10-11T12:25:36.908Z,5.18
2022-10-11T12:28:42.952Z,7.97
2022-10-11T12:31:35.800Z,10.30
2022-10-11T12:34:33.274Z,7.65
2022-10-11T12:37:21.106Z,9.70
2022-10-11T12:40:43.858Z,8.80
2022-10-11T12:43:33.720Z,4.80
2022-10-11T12:46:29.560Z,6.72
2022-10-11T12:49:17.040Z,5.80
2022-10-11T12:52:04.527Z,5.72
2022-10-11T12:55:20.035Z,7.07
2022-10-11T12:58:08.658Z,8.27
2022-10-11T13:00:56.235Z,8.73
2022-10-11T13:03:49.195Z,7.93
2022-10-11T13:06:45.209Z,9.38
2022-10-11T13:09:39.208Z,6.60
2022-10-11T13:12:29.847Z,7.00
2022-10-11T13:15:20.371Z,12.48
2022-10-11T13:18:14.946Z,7.28
2022-10-11T13:21:02.628Z,4.13
2022-10-11T13:23:50.280Z,6.65
2022-10-11T13:26:38.218Z,5.03
2022-10-11T13:29:41.079Z,5.28
2022-10-11T13:32:30.729Z,8.70
2022-10-11T13:35:34.201Z,7.38
2022-10-11T13:38:29.947Z,5.15
2022-10-11T13:41:17.562Z,7.30
2022-10-11T13:44:04.973Z,6.60
2022-10-11T13:46:52.907Z,6.57
2022-10-11T13:49:45.737Z,5.05
2022-10-11T13:52:33.221Z,6.75
2022-10-11T13:55:48.560Z,6.60
2022-10-11T13:58:44.717Z,8.43
2022-10-11T14:01:45.304Z,6.40
2022-10-11T14:04:40.337Z,7.00
2022-10-11T14:07:36.177Z,5.50
2022-10-11T14:10:23.750Z,8.73
2022-10-11T14:13:39.104Z,9.23
2022-10-11T14:16:26.123Z,7.07
2022-10-11T14:19:18.385Z,6.20
2022-10-11T14:22:07.279Z,5.05
2022-10-11T14:24:54.738Z,6.80
2022-10-11T14:27:42.631Z,6.90
2022-10-11T14:30:31.518Z,7.18
2022-10-11T14:33:19.213Z,6.85
2022-10-11T14:36:07.041Z,6.57
2022-10-11T14:38:54.724Z,8.77
2022-10-11T14:41:42.758Z,8.77
2022-10-11T14:44:29.869Z,8.18
2022-10-11T14:47:17.968Z,6.65
2022-10-11T14:50:34.990Z,6.28
2022-10-11T14:53:22.291Z,8.13
2022-10-11T14:56:10.073Z,5.85
2022-10-11T14:58:57.230Z,8.10
2022-10-11T15:01:46.613Z,7.22
2022-10-11T15:04:34.199Z,7.93
2022-10-11T15:07:21.684Z,5.65
2022-10-11T15:10:27.803Z,7.35
2022-10-11T15:13:15.286Z,6.60
2022-10-11T15:16:03.392Z,5.50
2022-10-11T15:18:51.888Z,6.18
2022-10-11T15:21:39.408Z,6.72
2022-10-11T15:24:27.905Z,4.18
2022-10-11T15:27:17.167Z,5.68
2022-10-11T15:30:27.937Z,6.43
2022-10-11T15:33:15.447Z,6.22
2022-10-11T15:36:03.325Z,5.38
2022-10-11T15:38:51.028Z,6.72
2022-10-11T15:41:38.088Z,5.63
2022-10-11T15:44:25.576Z,7.38
2022-10-11T15:47:13.078Z,4.25
2022-10-11T15:50:00.630Z,4.45
2022-10-11T15:52:48.112Z,9.07
2022-10-11T15:55:39.593Z,8.02
2022-10-11T15:58:29.518Z,7.70
2022-10-11T16:01:19.615Z,6.78
2022-10-11T16:04:07.169Z,8.50
2022-10-11T16:06:54.673Z,10.90
2022-10-11T16:09:42.144Z,6.45
2022-10-11T16:12:29.634Z,7.47
2022-10-11T16:15:17.060Z,6.05
2022-10-11T16:18:04.909Z,7.50
2022-10-11T16:20:52.460Z,5.72
2022-10-11T16:23:39.980Z,5.15
2022-10-11T16:26:27.481Z,9.93
2022-10-11T16:29:14.977Z,8.90
2022-10-11T16:32:02.097Z,6.85
2022-10-11T16:34:49.596Z,10.60
2022-10-11T16:37:37.061Z,9.18
2022-10-11T16:40:26.569Z,6.38
2022-10-11T16:43:14.050Z,7.40
2022-10-11T16:46:01.496Z,7.85
2022-10-11T16:48:49.198Z,9.00
2022-10-11T16:51:36.377Z,7.63
2022-10-11T16:54:23.849Z,4.18
2022-10-11T16:57:13.059Z,8.02
2022-10-11T17:00:00.521Z,9.48
2022-10-11T17:02:48.014Z,9.98
2022-10-11T17:05:36.499Z,6.40
2022-10-11T17:08:24.017Z,8.50
2022-10-11T17:11:11.479Z,7.18
2022-10-11T17:14:00.759Z,7.05
2022-10-11T17:16:48.297Z,7.32
2022-10-11T17:19:35.946Z,6.72
2022-10-11T17:22:23.486Z,7.28
2022-10-11T17:25:10.969Z,5.47
2022-10-11T17:27:58.500Z,11.85
2022-10-11T17:30:56.904Z,7.10
2022-10-11T17:33:44.358Z,6.53
2022-10-11T17:36:36.222Z,10.75
2022-10-11T17:39:24.365Z,8.40
2022-10-11T17:42:11.990Z,8.63
2022-10-11T17:44:59.067Z,8.85
2022-10-11T17:47:46.301Z,8.65
2022-10-11T17:50:33.828Z,10.02
2022-10-11T17:53:21.709Z,14.15
2022-10-11T17:56:11.995Z,10.63
2022-10-11T17:58:59.610Z,15.68
2022-10-11T18:01:47.279Z,14.40
2022-10-11T18:04:35.237Z,44.70
2022-10-11T18:07:24.034Z,57.38
2022-10-11T18:10:11.562Z,44.83
2022-10-11T18:13:01.988Z,34.58
2022-10-11T18:15:53.750Z,27.60
2022-10-11T18:18:42.237Z,18.77
2022-10-11T18:21:34.227Z,23.65
2022-10-11T18:24:22.362Z,18.40
2022-10-11T18:27:09.862Z,20.33
2022-10-11T18:29:57.448Z,16.20
2022-10-11T18:32:44.999Z,13.18
2022-10-11T18:35:32.479Z,11.75
2022-10-11T18:38:19.997Z,14.13
2022-10-11T18:41:09.809Z,10.65
2022-10-11T18:44:02.447Z,13.32
2022-10-11T18:46:50.987Z,15.70
2022-10-11T18:49:38.484Z,10.18
2022-10-11T18:52:26.034Z,13.80
2022-10-11T18:55:13.535Z,13.23
2022-10-11T18:58:01.398Z,12.98
2022-10-11T19:00:49.078Z,12.25
2022-10-11T19:03:37.044Z,12.23
2022-10-11T19:06:30.205Z,10.68
2022-10-11T19:09:25.966Z,12.27
2022-10-11T19:12:13.787Z,15.10
2022-10-11T19:15:01.753Z,12.30
2022-10-11T19:17:49.204Z,13.30
2022-10-11T19:20:36.707Z,15.70
2022-10-11T19:23:24.294Z,10.52
2022-10-11T19:26:23.141Z,10.98
2022-10-11T19:29:10.628Z,10.13
2022-10-11T19:32:00.149Z,9.40
2022-10-11T19:34:47.669Z,11.55
2022-10-11T19:37:35.205Z,11.57
2022-10-11T19:40:22.713Z,11.27
2022-10-11T19:43:10.270Z,12.65
2022-10-11T19:46:27.273Z,10.20
2022-10-11T19:49:25.777Z,11.85
2022-10-11T19:52:13.701Z,11.70
2022-10-11T19:55:01.167Z,10.32
2022-10-11T19:57:48.664Z,14.00
2022-10-11T20:00:36.197Z,11.07
2022-10-11T20:03:23.294Z,11.85
2022-10-11T20:06:11.263Z,13.23
2022-10-11T20:09:23.930Z,13.07
2022-10-11T20:12:06.310Z,10.05
2022-10-11T20:14:53.833Z,14.93
2022-10-11T20:18:42.641Z,15.50
2022-10-11T20:21:32.991Z,14.18
2022-10-11T20:24:20.618Z,13.63
2022-10-11T20:27:08.196Z,13.43
2022-10-11T20:29:55.263Z,13.02
2022-10-11T20:32:42.739Z,11.57
2022-10-11T20:35:30.215Z,8.90
2022-10-11T20:38:17.644Z,15.18
2022-10-11T20:41:08.598Z,14.13
2022-10-11T20:43:57.631Z,10.13
2022-10-11T20:46:45.116Z,10.52
2022-10-11T20:49:32.228Z,10.23
2022-10-11T20:52:19.709Z,17.23
2022-10-11T20:55:07.317Z,15.48
2022-10-11T20:57:56.141Z,16.40
2022-10-11T21:00:43.847Z,12.20
2022-10-11T21:03:31.318Z,11.13
2022-10-11T21:06:18.804Z,9.00
2022-10-11T21:09:06.280Z,12.25
2022-10-11T21:11:53.800Z,9.98
2022-10-11T21:14:41.252Z,8.73
2022-10-11T21:17:28.751Z,17.75
2022-10-11T21:20:16.274Z,32.65
2022-10-11T21:23:03.762Z,22.45
2022-10-11T21:25:51.240Z,24.70
2022-10-11T21:28:39.092Z,10.05
2022-10-11T21:31:31.270Z,8.93
2022-10-11T21:34:20.338Z,12.57
2022-10-11T21:37:07.947Z,11.82
2022-10-11T21:39:54.969Z,57.17
2022-10-11T21:42:42.464Z,12.10
2022-10-11T21:45:29.933Z,10.88
2022-10-11T21:48:17.801Z,8.48
2022-10-11T21:51:05.566Z,33.00
2022-10-11T21:53:54.944Z,13.55
2022-10-11T21:56:42.537Z,11.73
2022-10-11T21:59:30.031Z,11.70
2022-10-11T22:02:17.516Z,9.73
2022-10-11T22:05:05.141Z,10.02
2022-10-11T22:07:52.179Z,11.80
2022-10-11T22:10:42.536Z,9.85
2022-10-11T22:13:32.136Z,11.75
2022-10-11T22:16:20.149Z,13.10
2022-10-11T22:19:07.629Z,6.32
2022-10-11T22:21:55.198Z,9.35
2022-10-11T22:24:42.652Z,12.23
2022-10-11T22:27:30.120Z,9.55
2022-10-11T22:30:17.637Z,10.38
2022-10-11T22:33:05.166Z,11.32
2022-10-11T22:35:57.519Z,12.50
2022-10-11T22:38:45.479Z,12.13
2022-10-11T22:41:32.992Z,12.18
2022-10-11T22:44:20.456Z,10.07
2022-10-11T22:47:07.961Z,6.47
2022-10-11T22:49:55.466Z,10.13
2022-10-11T22:52:42.904Z,10.43
2022-10-11T22:55:30.401Z,7.28
2022-10-11T22:58:17.890Z,10.18
2022-10-11T23:01:10.246Z,10.60
2022-10-11T23:03:57.996Z,10.35
2022-10-11T23:06:45.248Z,7.15
2022-10-11T23:09:32.852Z,10.02
2022-10-11T23:12:20.450Z,10.93
2022-10-11T23:15:08.334Z,9.90
2022-10-11T23:17:56.013Z,7.93
2022-10-11T23:20:43.613Z,10.43
2022-10-11T23:23:31.363Z,9.88
2022-10-11T23:26:18.443Z,7.28
2022-10-11T23:29:06.207Z,7.72
2022-10-11T23:31:53.310Z,8.38
2022-10-11T23:34:40.777Z,9.32
2022-10-11T23:37:28.197Z,9.07
2022-10-11T23:40:15.587Z,8.95
2022-10-11T23:43:03.289Z,8.15
2022-10-11T23:45:51.176Z,10.82
2022-10-11T23:48:38.666Z,7.57
2022-10-11T23:51:26.182Z,11.10
2022-10-11T23:54:13.225Z,7.50
2022-10-11T23:57:00.681Z,9.70
2022-10-11T23:59:48.149Z,8.07
